Decoded Metar for LFOA (AVORD in FRANCE) (IATA:N/A) | Meteo·Mobile Aviation Weather
aviador You're here:

LFOA Decoded Metar

AVORD in FRANCE
Report Time2018-11-19 21:30:00
UTC Time2018-11-19 21:47:21
Flight Rules vfr VFR
Wind040° at 08 kt
W.Decomp.*RWY 06: 7.5 kt HW 2.7 kt LCW
W.Rank040° ranks 16
Current wind is above 040° avg. (7.0)
Visibility9999 m
Phenomena:Light Rain
Clouds:Overcast 038 Hf
Expected CloudBase > 800 ft AGL from Temp-Dew spread
Ceiling3,800 ft
Temp03°C (ISA -11)
Dew Point01°C (87% RH)
AAT-1.7°C
QNH1004 hPa
Density Alt-328 ft
Elevation587 ft
Report Wrong Elevation
Raw Report
LFOA 192130Z AUTO 04008KT 9999 -RA OVC038 03/01 Q1004=

Extra information for LFOA:More info

Metar Taf Metar & Taf Last 4 Metars F.Rules Stats Wind Profile Meteogram Temp Stats Airport Information Weather charts Add Link Nearby VenuesMetar ALERT Operation Metar Decoded Social comments